sensor_id;sensor_type;location;lat;lon;timestamp;temperature;humidity
1812;DHT22;904;47.814;11.134;2022-07-29T00:00:32;21.00;79.60
1812;DHT22;904;47.814;11.134;2022-07-29T00:02:59;21.00;80.00
1812;DHT22;904;47.814;11.134;2022-07-29T00:05:26;20.90;80.80
1812;DHT22;904;47.814;11.134;2022-07-29T00:07:53;20.80;81.30
1812;DHT22;904;47.814;11.134;2022-07-29T00:10:20;20.80;82.00
1812;DHT22;904;47.814;11.134;2022-07-29T00:12:47;20.80;82.80
1812;DHT22;904;47.814;11.134;2022-07-29T00:15:14;20.70;81.80
1812;DHT22;904;47.814;11.134;2022-07-29T00:17:42;20.70;82.00
1812;DHT22;904;47.814;11.134;2022-07-29T00:20:10;20.70;82.30
1812;DHT22;904;47.814;11.134;2022-07-29T00:22:37;20.70;83.60
1812;DHT22;904;47.814;11.134;2022-07-29T00:25:05;20.70;83.70
1812;DHT22;904;47.814;11.134;2022-07-29T00:27:33;20.70;83.90
1812;DHT22;904;47.814;11.134;2022-07-29T00:30:00;20.70;84.30
1812;DHT22;904;47.814;11.134;2022-07-29T00:32:27;20.60;84.30
1812;DHT22;904;47.814;11.134;2022-07-29T00:34:55;20.60;84.50
1812;DHT22;904;47.814;11.134;2022-07-29T00:37:39;20.40;85.00
1812;DHT22;904;47.814;11.134;2022-07-29T00:40:07;20.40;85.60
1812;DHT22;904;47.814;11.134;2022-07-29T00:42:42;20.40;86.00
1812;DHT22;904;47.814;11.134;2022-07-29T00:45:09;20.30;86.10
1812;DHT22;904;47.814;11.134;2022-07-29T00:47:36;20.30;85.90
1812;DHT22;904;47.814;11.134;2022-07-29T00:50:06;20.30;85.80
1812;DHT22;904;47.814;11.134;2022-07-29T00:52:35;20.20;86.60
1812;DHT22;904;47.814;11.134;2022-07-29T00:55:03;20.20;87.10
1812;DHT22;904;47.814;11.134;2022-07-29T00:57:31;20.20;88.10
1812;DHT22;904;47.814;11.134;2022-07-29T00:59:58;20.20;88.30
1812;DHT22;904;47.814;11.134;2022-07-29T01:02:25;20.20;88.10
1812;DHT22;904;47.814;11.134;2022-07-29T01:04:52;20.20;87.70
1812;DHT22;904;47.814;11.134;2022-07-29T01:07:22;20.20;87.40
1812;DHT22;904;47.814;11.134;2022-07-29T01:09:50;20.20;86.90
1812;DHT22;904;47.814;11.134;2022-07-29T01:12:19;20.20;86.80
1812;DHT22;904;47.814;11.134;2022-07-29T01:14:49;20.10;87.10
1812;DHT22;904;47.814;11.134;2022-07-29T01:17:21;20.10;87.70
1812;DHT22;904;47.814;11.134;2022-07-29T01:19:56;20.10;87.50
1812;DHT22;904;47.814;11.134;2022-07-29T01:22:33;20.10;87.80
1812;DHT22;904;47.814;11.134;2022-07-29T01:25:28;20.10;88.30
1812;DHT22;904;47.814;11.134;2022-07-29T01:28:10;20.10;89.30
1812;DHT22;904;47.814;11.134;2022-07-29T01:30:42;20.00;89.30
1812;DHT22;904;47.814;11.134;2022-07-29T01:33:15;20.00;89.50
1812;DHT22;904;47.814;11.134;2022-07-29T01:35:58;19.90;88.90
1812;DHT22;904;47.814;11.134;2022-07-29T01:38:26;19.90;88.50
1812;DHT22;904;47.814;11.134;2022-07-29T01:41:01;19.90;89.40
1812;DHT22;904;47.814;11.134;2022-07-29T01:43:38;19.90;89.60
1812;DHT22;904;47.814;11.134;2022-07-29T01:46:11;19.90;89.00
1812;DHT22;904;47.814;11.134;2022-07-29T01:48:42;19.90;89.20
1812;DHT22;904;47.814;11.134;2022-07-29T01:51:14;19.80;89.10
1812;DHT22;904;47.814;11.134;2022-07-29T01:53:47;19.80;89.00
1812;DHT22;904;47.814;11.134;2022-07-29T01:56:18;19.80;88.90
1812;DHT22;904;47.814;11.134;2022-07-29T01:58:48;19.80;89.00
1812;DHT22;904;47.814;11.134;2022-07-29T02:01:18;19.80;89.30
1812;DHT22;904;47.814;11.134;2022-07-29T02:03:46;19.70;89.30
1812;DHT22;904;47.814;11.134;2022-07-29T02:06:17;19.60;89.80
1812;DHT22;904;47.814;11.134;2022-07-29T02:08:46;19.50;90.20
1812;DHT22;904;47.814;11.134;2022-07-29T02:11:14;19.50;90.20
1812;DHT22;904;47.814;11.134;2022-07-29T02:13:41;19.50;90.20
1812;DHT22;904;47.814;11.134;2022-07-29T02:16:10;19.40;90.20
1812;DHT22;904;47.814;11.134;2022-07-29T02:18:41;19.40;90.30
1812;DHT22;904;47.814;11.134;2022-07-29T02:21:10;19.30;90.50
1812;DHT22;904;47.814;11.134;2022-07-29T02:23:38;19.30;90.60
1812;DHT22;904;47.814;11.134;2022-07-29T02:26:06;19.20;90.60
1812;DHT22;904;47.814;11.134;2022-07-29T02:28:34;19.10;90.90
1812;DHT22;904;47.814;11.134;2022-07-29T02:31:02;19.00;90.90
1812;DHT22;904;47.814;11.134;2022-07-29T02:33:31;19.00;90.90
1812;DHT22;904;47.814;11.134;2022-07-29T02:36:00;19.00;91.10
1812;DHT22;904;47.814;11.134;2022-07-29T02:38:28;19.00;91.20
1812;DHT22;904;47.814;11.134;2022-07-29T02:41:17;19.00;91.30
1812;DHT22;904;47.814;11.134;2022-07-29T02:43:47;19.00;91.30
1812;DHT22;904;47.814;11.134;2022-07-29T02:46:20;19.00;91.60
1812;DHT22;904;47.814;11.134;2022-07-29T02:48:55;19.00;91.70
1812;DHT22;904;47.814;11.134;2022-07-29T02:51:28;19.00;92.10
1812;DHT22;904;47.814;11.134;2022-07-29T02:54:01;18.90;92.20
1812;DHT22;904;47.814;11.134;2022-07-29T02:56:33;18.80;92.10
1812;DHT22;904;47.814;11.134;2022-07-29T02:59:04;18.70;92.40
1812;DHT22;904;47.814;11.134;2022-07-29T03:01:33;18.70;92.50
1812;DHT22;904;47.814;11.134;2022-07-29T03:04:03;18.70;92.50
1812;DHT22;904;47.814;11.134;2022-07-29T03:06:33;18.70;92.70
1812;DHT22;904;47.814;11.134;2022-07-29T03:09:01;18.70;92.70
1812;DHT22;904;47.814;11.134;2022-07-29T03:11:29;18.70;92.80
1812;DHT22;904;47.814;11.134;2022-07-29T03:13:56;18.70;92.90
1812;DHT22;904;47.814;11.134;2022-07-29T03:16:26;18.80;93.00
1812;DHT22;904;47.814;11.134;2022-07-29T03:18:54;18.80;93.00
1812;DHT22;904;47.814;11.134;2022-07-29T03:21:21;18.90;93.00
1812;DHT22;904;47.814;11.134;2022-07-29T03:23:49;18.90;92.90
1812;DHT22;904;47.814;11.134;2022-07-29T03:26:16;19.00;92.90
1812;DHT22;904;47.814;11.134;2022-07-29T03:28:43;18.90;92.60
1812;DHT22;904;47.814;11.134;2022-07-29T03:31:10;19.00;92.60
1812;DHT22;904;47.814;11.134;2022-07-29T03:33:37;19.00;92.50
1812;DHT22;904;47.814;11.134;2022-07-29T03:36:03;19.00;92.40
1812;DHT22;904;47.814;11.134;2022-07-29T03:38:33;18.90;92.20
1812;DHT22;904;47.814;11.134;2022-07-29T03:41:05;18.80;92.30
1812;DHT22;904;47.814;11.134;2022-07-29T03:43:37;18.70;92.70
1812;DHT22;904;47.814;11.134;2022-07-29T03:46:07;18.60;92.80
1812;DHT22;904;47.814;11.134;2022-07-29T03:48:40;18.60;92.90
1812;DHT22;904;47.814;11.134;2022-07-29T03:51:09;18.60;92.70
1812;DHT22;904;47.814;11.134;2022-07-29T03:53:36;18.50;92.80
1812;DHT22;904;47.814;11.134;2022-07-29T03:56:05;18.50;92.90
1812;DHT22;904;47.814;11.134;2022-07-29T03:58:33;18.40;92.90
1812;DHT22;904;47.814;11.134;2022-07-29T04:01:01;18.50;93.10
1812;DHT22;904;47.814;11.134;2022-07-29T04:03:28;18.50;93.10
1812;DHT22;904;47.814;11.134;2022-07-29T04:06:00;18.60;92.90
1812;DHT22;904;47.814;11.134;2022-07-29T04:08:27;18.50;93.00
1812;DHT22;904;47.814;11.134;2022-07-29T04:10:54;18.50;93.30
1812;DHT22;904;47.814;11.134;2022-07-29T04:13:23;18.60;93.30
1812;DHT22;904;47.814;11.134;2022-07-29T04:15:50;18.60;93.40
1812;DHT22;904;47.814;11.134;2022-07-29T04:18:17;18.60;93.50
1812;DHT22;904;47.814;11.134;2022-07-29T04:20:44;18.70;93.50
1812;DHT22;904;47.814;11.134;2022-07-29T04:23:11;18.70;93.30
1812;DHT22;904;47.814;11.134;2022-07-29T04:25:38;18.70;93.10
1812;DHT22;904;47.814;11.134;2022-07-29T04:28:05;18.60;93.10
1812;DHT22;904;47.814;11.134;2022-07-29T04:30:35;18.60;93.30
1812;DHT22;904;47.814;11.134;2022-07-29T04:33:04;18.60;93.20
1812;DHT22;904;47.814;11.134;2022-07-29T04:35:34;18.70;93.30
1812;DHT22;904;47.814;11.134;2022-07-29T04:38:01;18.70;93.30
1812;DHT22;904;47.814;11.134;2022-07-29T04:40:28;18.70;92.70
1812;DHT22;904;47.814;11.134;2022-07-29T04:42:55;18.70;92.80
1812;DHT22;904;47.814;11.134;2022-07-29T04:45:22;18.70;92.80
1812;DHT22;904;47.814;11.134;2022-07-29T04:47:51;18.80;92.60
1812;DHT22;904;47.814;11.134;2022-07-29T04:50:18;18.70;92.70
1812;DHT22;904;47.814;11.134;2022-07-29T04:52:45;18.80;92.90
1812;DHT22;904;47.814;11.134;2022-07-29T04:55:12;18.80;92.50
1812;DHT22;904;47.814;11.134;2022-07-29T04:57:39;18.70;92.80
1812;DHT22;904;47.814;11.134;2022-07-29T05:00:07;18.80;93.40
1812;DHT22;904;47.814;11.134;2022-07-29T05:02:35;18.80;93.40
1812;DHT22;904;47.814;11.134;2022-07-29T05:05:04;18.90;93.10
1812;DHT22;904;47.814;11.134;2022-07-29T05:07:32;18.90;93.30
1812;DHT22;904;47.814;11.134;2022-07-29T05:09:59;18.90;93.20
1812;DHT22;904;47.814;11.134;2022-07-29T05:12:26;19.00;93.10
1812;DHT22;904;47.814;11.134;2022-07-29T05:14:54;19.00;92.90
1812;DHT22;904;47.814;11.134;2022-07-29T05:17:21;19.00;93.00
1812;DHT22;904;47.814;11.134;2022-07-29T05:19:48;19.10;93.00
1812;DHT22;904;47.814;11.134;2022-07-29T05:22:18;19.10;93.30
1812;DHT22;904;47.814;11.134;2022-07-29T05:24:46;19.20;93.50
1812;DHT22;904;47.814;11.134;2022-07-29T05:27:15;19.10;93.80
1812;DHT22;904;47.814;11.134;2022-07-29T05:29:43;19.20;93.80
1812;DHT22;904;47.814;11.134;2022-07-29T05:32:10;19.10;93.70
1812;DHT22;904;47.814;11.134;2022-07-29T05:34:37;19.10;93.90
1812;DHT22;904;47.814;11.134;2022-07-29T05:37:05;19.10;94.00
1812;DHT22;904;47.814;11.134;2022-07-29T05:39:33;19.10;94.00
1812;DHT22;904;47.814;11.134;2022-07-29T05:42:02;19.20;93.90
1812;DHT22;904;47.814;11.134;2022-07-29T05:44:29;19.20;94.20
1812;DHT22;904;47.814;11.134;2022-07-29T05:46:59;19.30;94.20
1812;DHT22;904;47.814;11.134;2022-07-29T05:49:28;19.30;94.30
1812;DHT22;904;47.814;11.134;2022-07-29T05:51:57;19.30;94.00
1812;DHT22;904;47.814;11.134;2022-07-29T05:54:26;19.30;94.00
1812;DHT22;904;47.814;11.134;2022-07-29T05:56:55;19.40;93.90
1812;DHT22;904;47.814;11.134;2022-07-29T05:59:22;19.40;93.90
1812;DHT22;904;47.814;11.134;2022-07-29T06:01:49;19.50;93.40
1812;DHT22;904;47.814;11.134;2022-07-29T06:04:16;19.50;93.00
1812;DHT22;904;47.814;11.134;2022-07-29T06:06:43;19.60;93.20
1812;DHT22;904;47.814;11.134;2022-07-29T06:09:10;19.70;93.50
1812;DHT22;904;47.814;11.134;2022-07-29T06:11:42;19.80;93.40
1812;DHT22;904;47.814;11.134;2022-07-29T06:14:10;19.90;92.90
1812;DHT22;904;47.814;11.134;2022-07-29T06:16:37;19.90;92.70
1812;DHT22;904;47.814;11.134;2022-07-29T06:19:04;20.00;92.80
1812;DHT22;904;47.814;11.134;2022-07-29T06:21:31;20.10;92.30
1812;DHT22;904;47.814;11.134;2022-07-29T06:23:59;20.20;92.10
1812;DHT22;904;47.814;11.134;2022-07-29T06:26:26;20.30;92.40
1812;DHT22;904;47.814;11.134;2022-07-29T06:28:53;20.30;92.50
1812;DHT22;904;47.814;11.134;2022-07-29T06:31:21;20.40;92.90
1812;DHT22;904;47.814;11.134;2022-07-29T06:33:48;20.50;92.60
1812;DHT22;904;47.814;11.134;2022-07-29T06:36:15;20.60;92.00
1812;DHT22;904;47.814;11.134;2022-07-29T06:38:42;20.70;92.00
1812;DHT22;904;47.814;11.134;2022-07-29T06:41:09;20.80;92.40
1812;DHT22;904;47.814;11.134;2022-07-29T06:43:39;21.00;92.30
1812;DHT22;904;47.814;11.134;2022-07-29T06:46:09;21.10;92.40
1812;DHT22;904;47.814;11.134;2022-07-29T06:48:37;21.20;92.20
1812;DHT22;904;47.814;11.134;2022-07-29T06:51:05;21.30;91.80
1812;DHT22;904;47.814;11.134;2022-07-29T06:53:33;21.40;91.60
1812;DHT22;904;47.814;11.134;2022-07-29T06:56:01;21.50;92.20
1812;DHT22;904;47.814;11.134;2022-07-29T06:58:29;21.60;91.50
1812;DHT22;904;47.814;11.134;2022-07-29T07:00:57;21.70;91.10
1812;DHT22;904;47.814;11.134;2022-07-29T07:03:24;21.80;91.00
1812;DHT22;904;47.814;11.134;2022-07-29T07:05:54;22.00;90.50
1812;DHT22;904;47.814;11.134;2022-07-29T07:08:21;22.00;90.30
1812;DHT22;904;47.814;11.134;2022-07-29T07:10:51;22.20;90.40
1812;DHT22;904;47.814;11.134;2022-07-29T07:13:19;22.30;90.30
1812;DHT22;904;47.814;11.134;2022-07-29T07:15:46;22.50;90.10
1812;DHT22;904;47.814;11.134;2022-07-29T07:18:14;22.60;89.20
1812;DHT22;904;47.814;11.134;2022-07-29T07:20:41;22.80;88.70
1812;DHT22;904;47.814;11.134;2022-07-29T07:23:10;22.90;89.70
1812;DHT22;904;47.814;11.134;2022-07-29T07:25:37;23.10;86.20
1812;DHT22;904;47.814;11.134;2022-07-29T07:28:04;23.20;85.40
1812;DHT22;904;47.814;11.134;2022-07-29T07:30:31;23.30;83.80
1812;DHT22;904;47.814;11.134;2022-07-29T07:32:59;23.40;83.40
1812;DHT22;904;47.814;11.134;2022-07-29T07:35:31;23.50;83.20
1812;DHT22;904;47.814;11.134;2022-07-29T07:38:06;23.70;81.90
1812;DHT22;904;47.814;11.134;2022-07-29T07:40:37;23.80;77.20
1812;DHT22;904;47.814;11.134;2022-07-29T07:43:07;24.00;76.40
1812;DHT22;904;47.814;11.134;2022-07-29T07:45:38;24.20;77.00
1812;DHT22;904;47.814;11.134;2022-07-29T07:48:05;24.50;76.60
1812;DHT22;904;47.814;11.134;2022-07-29T07:50:37;24.80;77.20
1812;DHT22;904;47.814;11.134;2022-07-29T07:53:04;25.20;77.70
1812;DHT22;904;47.814;11.134;2022-07-29T07:55:40;25.50;77.40
1812;DHT22;904;47.814;11.134;2022-07-29T07:58:10;25.90;75.70
1812;DHT22;904;47.814;11.134;2022-07-29T08:00:39;26.20;72.90
1812;DHT22;904;47.814;11.134;2022-07-29T08:03:07;26.50;71.50
1812;DHT22;904;47.814;11.134;2022-07-29T08:05:34;26.90;64.70
1812;DHT22;904;47.814;11.134;2022-07-29T08:08:07;27.10;59.90
1812;DHT22;904;47.814;11.134;2022-07-29T08:10:34;27.30;61.40
1812;DHT22;904;47.814;11.134;2022-07-29T08:13:24;27.50;61.20
1812;DHT22;904;47.814;11.134;2022-07-29T08:15:56;27.60;59.30
1812;DHT22;904;47.814;11.134;2022-07-29T08:18:28;27.70;57.50
1812;DHT22;904;47.814;11.134;2022-07-29T08:20:56;27.80;56.40
1812;DHT22;904;47.814;11.134;2022-07-29T08:23:23;27.90;55.80
1812;DHT22;904;47.814;11.134;2022-07-29T08:25:57;28.10;56.30
1812;DHT22;904;47.814;11.134;2022-07-29T08:28:25;28.40;56.80
1812;DHT22;904;47.814;11.134;2022-07-29T08:30:52;28.60;55.90
1812;DHT22;904;47.814;11.134;2022-07-29T08:33:19;28.70;53.00
1812;DHT22;904;47.814;11.134;2022-07-29T08:35:46;28.70;55.00
1812;DHT22;904;47.814;11.134;2022-07-29T08:38:15;28.70;53.70
1812;DHT22;904;47.814;11.134;2022-07-29T08:40:42;28.80;52.80
1812;DHT22;904;47.814;11.134;2022-07-29T08:43:09;28.80;53.00
1812;DHT22;904;47.814;11.134;2022-07-29T08:45:42;28.80;52.20
1812;DHT22;904;47.814;11.134;2022-07-29T08:48:11;28.70;52.70
1812;DHT22;904;47.814;11.134;2022-07-29T08:50:40;28.70;52.70
1812;DHT22;904;47.814;11.134;2022-07-29T08:53:12;28.60;53.30
1812;DHT22;904;47.814;11.134;2022-07-29T08:55:45;28.50;53.60
1812;DHT22;904;47.814;11.134;2022-07-29T08:58:13;28.40;54.10
1812;DHT22;904;47.814;11.134;2022-07-29T09:00:46;28.20;54.40
1812;DHT22;904;47.814;11.134;2022-07-29T09:03:17;28.20;55.20
1812;DHT22;904;47.814;11.134;2022-07-29T09:05:45;28.30;55.20
1812;DHT22;904;47.814;11.134;2022-07-29T09:08:12;28.30;55.80
1812;DHT22;904;47.814;11.134;2022-07-29T09:10:40;28.30;55.50
1812;DHT22;904;47.814;11.134;2022-07-29T09:13:07;28.30;54.20
1812;DHT22;904;47.814;11.134;2022-07-29T09:15:34;28.40;55.60
1812;DHT22;904;47.814;11.134;2022-07-29T09:18:02;28.50;55.20
1812;DHT22;904;47.814;11.134;2022-07-29T09:20:29;28.70;55.90
1812;DHT22;904;47.814;11.134;2022-07-29T09:23:16;29.00;55.30
1812;DHT22;904;47.814;11.134;2022-07-29T09:25:43;29.20;55.80
1812;DHT22;904;47.814;11.134;2022-07-29T09:28:12;29.50;53.80
1812;DHT22;904;47.814;11.134;2022-07-29T09:30:50;29.70;52.20
1812;DHT22;904;47.814;11.134;2022-07-29T09:33:19;29.70;52.80
1812;DHT22;904;47.814;11.134;2022-07-29T09:35:58;29.80;51.90
1812;DHT22;904;47.814;11.134;2022-07-29T09:38:26;29.70;53.00
1812;DHT22;904;47.814;11.134;2022-07-29T09:40:56;29.70;53.50
1812;DHT22;904;47.814;11.134;2022-07-29T09:43:23;29.70;52.40
1812;DHT22;904;47.814;11.134;2022-07-29T09:45:51;29.70;51.90
1812;DHT22;904;47.814;11.134;2022-07-29T09:48:21;29.60;50.90
1812;DHT22;904;47.814;11.134;2022-07-29T09:50:49;29.30;50.60
1812;DHT22;904;47.814;11.134;2022-07-29T09:53:30;29.20;52.20
1812;DHT22;904;47.814;11.134;2022-07-29T09:55:58;29.30;53.10
1812;DHT22;904;47.814;11.134;2022-07-29T09:58:25;29.40;52.60
1812;DHT22;904;47.814;11.134;2022-07-29T10:00:53;29.60;53.70
1812;DHT22;904;47.814;11.134;2022-07-29T10:03:22;29.80;54.30
1812;DHT22;904;47.814;11.134;2022-07-29T10:06:05;30.10;54.00
1812;DHT22;904;47.814;11.134;2022-07-29T10:08:32;30.40;53.50
1812;DHT22;904;47.814;11.134;2022-07-29T10:11:09;30.50;51.70
1812;DHT22;904;47.814;11.134;2022-07-29T10:13:36;30.60;52.50
1812;DHT22;904;47.814;11.134;2022-07-29T10:16:05;30.60;50.60
1812;DHT22;904;47.814;11.134;2022-07-29T10:18:33;30.60;50.20
1812;DHT22;904;47.814;11.134;2022-07-29T10:21:01;30.50;49.50
1812;DHT22;904;47.814;11.134;2022-07-29T10:23:28;30.40;50.90
1812;DHT22;904;47.814;11.134;2022-07-29T10:25:56;30.40;50.80
1812;DHT22;904;47.814;11.134;2022-07-29T10:28:23;30.60;52.00
1812;DHT22;904;47.814;11.134;2022-07-29T10:30:51;30.90;52.30
1812;DHT22;904;47.814;11.134;2022-07-29T10:33:30;31.20;49.30
1812;DHT22;904;47.814;11.134;2022-07-29T10:36:15;31.30;51.60
1812;DHT22;904;47.814;11.134;2022-07-29T10:38:51;31.60;52.20
1812;DHT22;904;47.814;11.134;2022-07-29T10:41:43;31.70;50.50
1812;DHT22;904;47.814;11.134;2022-07-29T10:44:16;31.80;49.70
1812;DHT22;904;47.814;11.134;2022-07-29T10:46:44;31.90;48.90
1812;DHT22;904;47.814;11.134;2022-07-29T10:49:12;31.90;49.10
1812;DHT22;904;47.814;11.134;2022-07-29T10:51:56;31.90;49.10
1812;DHT22;904;47.814;11.134;2022-07-29T10:54:41;32.00;48.80
1812;DHT22;904;47.814;11.134;2022-07-29T10:57:16;32.00;47.80
1812;DHT22;904;47.814;11.134;2022-07-29T10:59:45;32.10;48.20
1812;DHT22;904;47.814;11.134;2022-07-29T11:02:45;32.00;48.90
1812;DHT22;904;47.814;11.134;2022-07-29T11:05:18;31.90;49.60
1812;DHT22;904;47.814;11.134;2022-07-29T11:08:24;31.80;48.60
1812;DHT22;904;47.814;11.134;2022-07-29T11:10:53;31.70;48.50
1812;DHT22;904;47.814;11.134;2022-07-29T11:13:44;31.40;47.30
1812;DHT22;904;47.814;11.134;2022-07-29T11:16:12;31.30;47.00
1812;DHT22;904;47.814;11.134;2022-07-29T11:21:45;31.00;47.70
1812;DHT22;904;47.814;11.134;2022-07-29T11:24:16;31.00;47.20
1812;DHT22;904;47.814;11.134;2022-07-29T11:26:44;31.00;46.80
1812;DHT22;904;47.814;11.134;2022-07-29T11:29:19;31.10;47.70
1812;DHT22;904;47.814;11.134;2022-07-29T11:31:49;31.10;46.20
1812;DHT22;904;47.814;11.134;2022-07-29T11:34:24;31.20;47.70
1812;DHT22;904;47.814;11.134;2022-07-29T11:37:20;31.30;47.80
1812;DHT22;904;47.814;11.134;2022-07-29T11:40:08;31.60;47.60
1812;DHT22;904;47.814;11.134;2022-07-29T11:42:46;31.80;47.00
1812;DHT22;904;47.814;11.134;2022-07-29T11:45:25;32.00;46.00
1812;DHT22;904;47.814;11.134;2022-07-29T11:47:59;32.10;46.20
1812;DHT22;904;47.814;11.134;2022-07-29T11:50:32;32.10;45.70
1812;DHT22;904;47.814;11.134;2022-07-29T11:53:00;32.10;44.50
1812;DHT22;904;47.814;11.134;2022-07-29T11:55:28;32.10;43.90
1812;DHT22;904;47.814;11.134;2022-07-29T11:57:58;32.10;44.20
1812;DHT22;904;47.814;11.134;2022-07-29T12:00:28;32.20;43.90
1812;DHT22;904;47.814;11.134;2022-07-29T12:02:57;32.30;43.80
1812;DHT22;904;47.814;11.134;2022-07-29T12:05:34;32.30;44.50
1812;DHT22;904;47.814;11.134;2022-07-29T12:08:07;32.40;43.50
1812;DHT22;904;47.814;11.134;2022-07-29T12:10:36;32.40;43.50
1812;DHT22;904;47.814;11.134;2022-07-29T12:13:04;32.50;43.40
1812;DHT22;904;47.814;11.134;2022-07-29T12:15:31;32.50;42.70
1812;DHT22;904;47.814;11.134;2022-07-29T12:17:58;32.50;41.40
1812;DHT22;904;47.814;11.134;2022-07-29T12:20:27;32.40;41.00
1812;DHT22;904;47.814;11.134;2022-07-29T12:22:55;32.30;42.20
1812;DHT22;904;47.814;11.134;2022-07-29T12:25:23;32.30;41.80
1812;DHT22;904;47.814;11.134;2022-07-29T12:28:03;32.20;41.70
1812;DHT22;904;47.814;11.134;2022-07-29T12:30:39;32.10;41.70
1812;DHT22;904;47.814;11.134;2022-07-29T12:33:14;32.10;41.80
1812;DHT22;904;47.814;11.134;2022-07-29T12:35:44;31.90;42.20
1812;DHT22;904;47.814;11.134;2022-07-29T12:38:12;31.80;42.90
1812;DHT22;904;47.814;11.134;2022-07-29T12:40:39;31.80;43.80
1812;DHT22;904;47.814;11.134;2022-07-29T12:43:12;31.70;43.00
1812;DHT22;904;47.814;11.134;2022-07-29T12:45:40;31.70;43.10
1812;DHT22;904;47.814;11.134;2022-07-29T12:48:08;31.60;44.00
1812;DHT22;904;47.814;11.134;2022-07-29T12:50:36;31.70;43.70
1812;DHT22;904;47.814;11.134;2022-07-29T12:53:11;31.70;43.10
1812;DHT22;904;47.814;11.134;2022-07-29T12:55:41;31.70;42.70
1812;DHT22;904;47.814;11.134;2022-07-29T12:58:09;31.60;42.00
1812;DHT22;904;47.814;11.134;2022-07-29T13:00:36;31.60;42.00
1812;DHT22;904;47.814;11.134;2022-07-29T13:03:03;31.60;42.50
1812;DHT22;904;47.814;11.134;2022-07-29T13:05:42;31.70;43.00
1812;DHT22;904;47.814;11.134;2022-07-29T13:08:14;31.70;42.60
1812;DHT22;904;47.814;11.134;2022-07-29T13:10:41;31.80;42.80
1812;DHT22;904;47.814;11.134;2022-07-29T13:13:11;31.90;43.80
1812;DHT22;904;47.814;11.134;2022-07-29T13:15:39;31.90;42.80
1812;DHT22;904;47.814;11.134;2022-07-29T13:18:27;32.00;42.80
1812;DHT22;904;47.814;11.134;2022-07-29T13:20:55;31.90;41.30
1812;DHT22;904;47.814;11.134;2022-07-29T13:23:22;31.70;41.50
1812;DHT22;904;47.814;11.134;2022-07-29T13:25:49;31.70;42.20
1812;DHT22;904;47.814;11.134;2022-07-29T13:28:17;31.60;41.50
1812;DHT22;904;47.814;11.134;2022-07-29T13:30:44;31.60;40.80
1812;DHT22;904;47.814;11.134;2022-07-29T13:33:11;31.30;39.60
1812;DHT22;904;47.814;11.134;2022-07-29T13:35:38;31.10;39.90
1812;DHT22;904;47.814;11.134;2022-07-29T13:38:05;31.00;41.40
1812;DHT22;904;47.814;11.134;2022-07-29T13:40:32;30.90;40.80
1812;DHT22;904;47.814;11.134;2022-07-29T13:43:00;30.90;41.20
1812;DHT22;904;47.814;11.134;2022-07-29T13:45:29;30.90;40.90
1812;DHT22;904;47.814;11.134;2022-07-29T13:47:56;30.90;41.90
1812;DHT22;904;47.814;11.134;2022-07-29T13:50:22;30.90;42.10
1812;DHT22;904;47.814;11.134;2022-07-29T13:52:49;31.00;43.20
1812;DHT22;904;47.814;11.134;2022-07-29T13:55:16;31.00;43.20
1812;DHT22;904;47.814;11.134;2022-07-29T13:57:43;31.00;43.50
1812;DHT22;904;47.814;11.134;2022-07-29T14:00:11;31.00;43.10
1812;DHT22;904;47.814;11.134;2022-07-29T14:02:39;30.80;43.20
1812;DHT22;904;47.814;11.134;2022-07-29T14:05:07;30.70;43.10
1812;DHT22;904;47.814;11.134;2022-07-29T14:07:35;30.60;43.10
1812;DHT22;904;47.814;11.134;2022-07-29T14:10:02;30.70;44.10
1812;DHT22;904;47.814;11.134;2022-07-29T14:12:29;30.60;44.00
1812;DHT22;904;47.814;11.134;2022-07-29T14:14:56;30.70;43.00
1812;DHT22;904;47.814;11.134;2022-07-29T14:17:23;30.70;42.80
1812;DHT22;904;47.814;11.134;2022-07-29T14:19:52;30.70;43.40
1812;DHT22;904;47.814;11.134;2022-07-29T14:22:18;30.60;43.00
1812;DHT22;904;47.814;11.134;2022-07-29T14:24:45;30.60;42.80
1812;DHT22;904;47.814;11.134;2022-07-29T14:27:12;30.60;42.50
1812;DHT22;904;47.814;11.134;2022-07-29T14:29:39;30.60;42.40
1812;DHT22;904;47.814;11.134;2022-07-29T14:32:06;30.50;42.50
1812;DHT22;904;47.814;11.134;2022-07-29T14:34:34;30.40;42.80
1812;DHT22;904;47.814;11.134;2022-07-29T14:37:03;30.30;43.10
1812;DHT22;904;47.814;11.134;2022-07-29T14:39:31;30.30;42.30
1812;DHT22;904;47.814;11.134;2022-07-29T14:41:58;30.30;42.40
1812;DHT22;904;47.814;11.134;2022-07-29T14:44:24;30.20;41.70
1812;DHT22;904;47.814;11.134;2022-07-29T14:46:56;30.10;40.80
1812;DHT22;904;47.814;11.134;2022-07-29T14:49:24;30.00;41.40
1812;DHT22;904;47.814;11.134;2022-07-29T14:51:51;29.90;41.50
1812;DHT22;904;47.814;11.134;2022-07-29T14:54:19;29.70;42.30
1812;DHT22;904;47.814;11.134;2022-07-29T14:56:46;29.60;42.90
1812;DHT22;904;47.814;11.134;2022-07-29T14:59:14;29.40;43.40
1812;DHT22;904;47.814;11.134;2022-07-29T15:01:41;29.20;44.20
1812;DHT22;904;47.814;11.134;2022-07-29T15:04:08;28.90;46.20
1812;DHT22;904;47.814;11.134;2022-07-29T15:06:35;28.70;46.10
1812;DHT22;904;47.814;11.134;2022-07-29T15:09:03;28.60;45.20
1812;DHT22;904;47.814;11.134;2022-07-29T15:11:32;28.40;44.00
1812;DHT22;904;47.814;11.134;2022-07-29T15:13:58;28.20;44.20
1812;DHT22;904;47.814;11.134;2022-07-29T15:16:25;28.10;44.60
1812;DHT22;904;47.814;11.134;2022-07-29T15:18:52;27.90;45.30
1812;DHT22;904;47.814;11.134;2022-07-29T15:21:19;27.80;45.90
1812;DHT22;904;47.814;11.134;2022-07-29T15:23:46;27.60;45.70
1812;DHT22;904;47.814;11.134;2022-07-29T15:26:13;27.50;46.60
1812;DHT22;904;47.814;11.134;2022-07-29T15:28:41;27.40;47.00
1812;DHT22;904;47.814;11.134;2022-07-29T15:31:08;27.30;47.20
1812;DHT22;904;47.814;11.134;2022-07-29T15:33:35;27.10;47.70
1812;DHT22;904;47.814;11.134;2022-07-29T15:36:02;27.00;48.00
1812;DHT22;904;47.814;11.134;2022-07-29T15:38:30;26.90;48.30
1812;DHT22;904;47.814;11.134;2022-07-29T15:40:58;26.70;47.80
1812;DHT22;904;47.814;11.134;2022-07-29T15:43:25;26.60;48.20
1812;DHT22;904;47.814;11.134;2022-07-29T15:45:53;26.50;48.80
1812;DHT22;904;47.814;11.134;2022-07-29T15:48:38;26.40;49.00
1812;DHT22;904;47.814;11.134;2022-07-29T15:51:05;26.30;49.50
1812;DHT22;904;47.814;11.134;2022-07-29T15:53:32;26.20;49.20
1812;DHT22;904;47.814;11.134;2022-07-29T15:55:59;26.20;48.90
1812;DHT22;904;47.814;11.134;2022-07-29T15:58:26;26.10;49.00
1812;DHT22;904;47.814;11.134;2022-07-29T16:00:54;26.00;49.90
1812;DHT22;904;47.814;11.134;2022-07-29T16:03:21;26.00;51.30
1812;DHT22;904;47.814;11.134;2022-07-29T16:05:49;25.90;52.80
1812;DHT22;904;47.814;11.134;2022-07-29T16:08:16;25.80;54.50
1812;DHT22;904;47.814;11.134;2022-07-29T16:10:43;25.70;55.00
1812;DHT22;904;47.814;11.134;2022-07-29T16:13:10;25.60;54.50
1812;DHT22;904;47.814;11.134;2022-07-29T16:15:37;25.60;54.90
1812;DHT22;904;47.814;11.134;2022-07-29T16:18:05;25.50;55.30
1812;DHT22;904;47.814;11.134;2022-07-29T16:20:33;25.40;55.70